Stations météo

réclame
Mon MeteoGroup
Cartagena, Espagne (8434): Température de l'air & dewpoint: 14.11.2018 12:00:00 - 20.11.2018 12:00:00 (CET)Cartagena, Espagne (8434): Vitesse du vent & gusts: 14.11.2018 12:00:00 - 20.11.2018 12:00:00 (CET)Cartagena, Espagne (8434): Direction du vent: 14.11.2018 12:00:00 - 20.11.2018 12:00:00 (CET)Cartagena, Espagne (8434): Quantités de précipitations: 14.11.2018 12:00:00 - 20.11.2018 12:00:00 (CET)
Date & Time tt [°C] td [°C] ff [km/h] ff [knt] fx [km/h] fx [knt] dd rr [mm]
20.11.2018 12:00:00 17,9 10,3 7 4 19 10 SW 0,0
20.11.2018 11:00:00 17,0 8,4 9 5 25 14 SSW 0,0
20.11.2018 10:00:00 16,3 9,5 11 6 22 12 SW 0,0
20.11.2018 09:00:00 12,9 11,1 2 1 6 3 SSW 0,0
20.11.2018 08:00:00 12,7 10,9 1 1 5 3 E 0,0
20.11.2018 07:00:00 13,1 11,0 1 0 3 2 NE -
20.11.2018 06:00:00 13,4 10,9 0 0 7 4 SSW 0,0
20.11.2018 05:00:00 14,0 10,8 1 1 7 4 NNW 0,0
20.11.2018 04:00:00 15,2 11,2 2 1 10 5 SW 0,0
20.11.2018 03:00:00 15,2 11,2 5 3 19 10 SW 0,0
20.11.2018 02:00:00 13,5 12,1 1 0 2 1 NNE 0,0
20.11.2018 01:00:00 13,4 11,8 1 0 2 1 NW -
20.11.2018 00:00:00 13,9 12,1 0 0 4 2 SW 0,0
19.11.2018 23:00:00 14,1 12,1 1 0 3 2 WNW 0,0
19.11.2018 22:00:00 14,5 12,4 0 0 4 2 SSW 0,0
19.11.2018 21:00:00 14,5 12,2 0 0 1 0 N 0,0
19.11.2018 20:00:00 14,4 11,9 1 0 2 1 ESE 0,0
19.11.2018 19:00:00 14,6 11,6 1 1 8 5 WNW -
19.11.2018 18:00:00 15,0 10,8 6 4 21 12 NW 0,0
19.11.2018 17:00:00 15,9 11,1 7 4 20 11 NNW 0,0
19.11.2018 16:00:00 15,9 11,1 7 4 22 12 WNW 0,0
19.11.2018 15:00:00 15,2 11,2 11 6 23 13 WNW 0,0
19.11.2018 14:00:00 14,4 11,7 6 3 22 12 W 0,0
19.11.2018 13:00:00 13,9 11,9 10 5 22 12 W -
19.11.2018 12:00:00 13,4 12,1 8 5 23 12 W 0,0
19.11.2018 11:00:00 13,0 11,9 7 4 15 8 WNW 0,0
19.11.2018 10:00:00 13,0 11,9 9 5 18 10 NW 0,0
19.11.2018 09:00:00 13,5 11,7 10 5 26 14 WNW 0,6
19.11.2018 08:00:00 13,3 11,5 14 8 26 14 W 0,0
19.11.2018 07:00:00 14,2 12,8 3 1 7 4 W -
19.11.2018 06:00:00 14,1 12,5 3 1 8 4 NW 0,0
19.11.2018 05:00:00 14,4 12,8 0 0 4 2 WNW 0,0
19.11.2018 04:00:00 14,7 12,7 1 1 6 3 NW 0,0
19.11.2018 03:00:00 15,2 12,7 2 1 17 9 NNW 0,0
19.11.2018 02:00:00 15,6 12,9 8 5 23 12 SSW 0,0
19.11.2018 01:00:00 15,6 13,1 11 6 25 14 S -
19.11.2018 00:00:00 15,0 13,2 8 4 33 18 S 0,0
18.11.2018 23:00:00 14,6 13,3 10 5 30 16 SSE 0,0
18.11.2018 22:00:00 15,6 14,0 10 5 22 12 E 0,0
18.11.2018 21:00:00 15,7 14,2 9 5 26 14 ENE 0,0
18.11.2018 20:00:00 16,0 13,7 9 5 29 15 ENE 0,0
18.11.2018 19:00:00 16,2 13,5 8 4 22 12 ENE -
18.11.2018 18:00:00 17,1 12,6 9 5 21 12 ENE 0,0
18.11.2018 17:00:00 17,3 12,4 8 5 24 13 ENE 0,0
18.11.2018 16:00:00 17,6 12,1 9 5 25 13 ENE 0,0
18.11.2018 15:00:00 17,7 11,7 11 6 29 16 ENE 0,0
18.11.2018 14:00:00 18,2 12,2 12 6 26 14 ENE 0,0
18.11.2018 13:00:00 17,4 12,1 12 6 27 14 ENE -
18.11.2018 12:00:00 17,6 12,5 10 6 25 14 ENE 0,0
18.11.2018 11:00:00 16,8 12,1 9 5 28 15 NE 0,0
18.11.2018 10:00:00 15,6 13,6 4 2 8 4 NNE 0,0
18.11.2018 09:00:00 13,9 12,3 1 1 8 5 N 0,0
18.11.2018 08:00:00 13,8 12,2 2 1 9 5 N 0,0
18.11.2018 07:00:00 13,8 12,0 3 1 9 5 N -
18.11.2018 06:00:00 14,0 12,2 3 2 8 4 N 0,0
18.11.2018 05:00:00 14,4 12,4 3 2 7 4 N 0,0
18.11.2018 04:00:00 14,4 12,3 3 1 7 4 N 0,0
18.11.2018 03:00:00 14,6 12,5 3 1 6 3 N 0,0
18.11.2018 02:00:00 14,5 12,4 1 1 9 5 NNW 0,0
18.11.2018 01:00:00 14,5 12,4 1 1 4 2 WNW -
18.11.2018 00:00:00 14,7 12,4 1 1 6 4 NW 0,0
17.11.2018 23:00:00 15,0 12,5 3 2 7 4 N 0,0
17.11.2018 22:00:00 15,4 12,9 2 1 8 4 NNW 0,0
17.11.2018 21:00:00 15,8 12,9 2 1 7 4 N 0,0
17.11.2018 20:00:00 16,3 13,0 1 1 5 3 N 0,0
17.11.2018 19:00:00 16,6 13,1 1 1 10 6 NNE -
17.11.2018 18:00:00 17,2 13,1 4 2 15 8 NE 0,0
17.11.2018 17:00:00 17,8 13,1 6 4 20 11 ENE 0,0
17.11.2018 16:00:00 18,6 12,8 9 5 23 13 ENE 0,0
17.11.2018 15:00:00 18,8 12,8 10 5 21 12 ENE 0,0
17.11.2018 14:00:00 18,2 13,5 7 4 23 12 NE 0,0
17.11.2018 13:00:00 18,4 14,1 7 4 22 12 NE -
17.11.2018 12:00:00 17,5 15,0 6 3 17 9 N 0,0
17.11.2018 11:00:00 18,1 14,0 11 6 21 11 ENE 0,0
17.11.2018 10:00:00 17,4 16,1 4 2 12 7 NNW 0,4
17.11.2018 09:00:00 16,2 14,9 3 2 8 5 N 0,0
17.11.2018 08:00:00 15,7 14,4 3 1 8 5 NNW 0,1
17.11.2018 07:00:00 16,2 14,7 3 2 9 5 NNW -
17.11.2018 06:00:00 16,1 14,5 1 1 7 4 NNW 0,0
17.11.2018 05:00:00 16,2 14,4 3 2 6 3 NNW 0,0
17.11.2018 04:00:00 16,5 14,7 3 1 11 6 N 0,0
17.11.2018 03:00:00 16,7 14,9 4 2 15 8 NNE 0,0
17.11.2018 02:00:00 17,0 15,2 4 2 14 8 NNE 0,0
17.11.2018 01:00:00 17,2 15,4 4 2 16 9 NNE -
17.11.2018 00:00:00 17,4 15,6 4 2 20 11 NNE 0,0
16.11.2018 23:00:00 17,6 15,8 7 4 17 9 NE 0,0
16.11.2018 22:00:00 17,7 15,9 5 3 18 10 NE 0,0
16.11.2018 21:00:00 17,8 15,8 3 2 20 11 NNE 0,0
16.11.2018 20:00:00 17,8 15,6 7 4 22 12 NNE 0,0
16.11.2018 19:00:00 17,8 15,2 7 4 21 11 NNE -
16.11.2018 18:00:00 18,1 15,4 6 4 22 12 NNE 0,0
16.11.2018 17:00:00 18,4 15,1 7 4 24 13 NE 0,0
16.11.2018 16:00:00 18,7 15,0 9 5 26 14 NE 0,0
16.11.2018 15:00:00 19,1 15,0 10 6 27 14 NE 0,0
16.11.2018 14:00:00 19,0 14,9 11 6 29 15 ENE 0,0
16.11.2018 13:00:00 19,2 15,1 10 5 26 14 NE -
16.11.2018 12:00:00 19,2 15,5 8 4 21 11 NE 0,0
16.11.2018 11:00:00 18,9 16,1 6 4 22 12 NE 0,0
16.11.2018 10:00:00 18,1 16,8 5 3 13 7 NE 0,0
16.11.2018 09:00:00 17,4 16,3 5 3 10 5 N 0,0
16.11.2018 08:00:00 16,6 15,5 3 2 11 6 NNW 0,0
16.11.2018 07:00:00 16,7 15,6 3 1 8 5 NW -
16.11.2018 06:00:00 16,8 15,7 2 1 9 5 NNE 0,0
16.11.2018 05:00:00 17,0 15,9 3 2 10 5 N 0,0
16.11.2018 04:00:00 17,2 15,9 3 1 10 5 NNW 0,0
16.11.2018 03:00:00 17,0 15,7 3 2 8 4 NW 0,0
16.11.2018 02:00:00 17,4 15,7 3 2 8 4 N 0,0
16.11.2018 01:00:00 17,5 15,7 3 1 6 3 NW -
16.11.2018 00:00:00 17,5 15,3 1 1 8 4 NW 0,0
15.11.2018 23:00:00 17,3 14,8 5 3 9 5 N 0,0
15.11.2018 22:00:00 17,2 14,7 3 2 8 4 NW 0,0
15.11.2018 21:00:00 17,4 14,9 3 1 8 5 NW 0,0
15.11.2018 20:00:00 17,6 15,1 3 1 8 5 NNW 0,0
15.11.2018 19:00:00 17,9 15,0 4 2 9 5 N -
15.11.2018 18:00:00 18,5 14,0 4 2 13 7 N 0,0
15.11.2018 17:00:00 19,4 13,6 4 2 13 7 NE 0,0
15.11.2018 16:00:00 19,0 13,2 5 3 13 7 NE 0,0
15.11.2018 15:00:00 19,3 13,5 5 3 16 9 ENE 0,0
15.11.2018 14:00:00 18,9 14,2 6 3 17 9 ENE 0,0
15.11.2018 13:00:00 18,3 14,6 7 4 19 10 NE -
15.11.2018 12:00:00 17,7 15,5 4 2 13 7 NNE 0,0
15.11.2018 11:00:00 16,4 14,9 5 3 14 7 N 0,0
15.11.2018 10:00:00 16,0 14,7 5 3 13 7 N 0,0
15.11.2018 09:00:00 15,9 14,6 5 3 12 6 NW 0,0
15.11.2018 08:00:00 15,5 14,0 7 4 14 7 NW 0,0
15.11.2018 07:00:00 15,0 13,4 4 2 13 7 NNW -
15.11.2018 06:00:00 14,5 12,9 6 3 - - NNW 0,0
15.11.2018 05:00:00 14,7 12,9 8 4 - - NW -
15.11.2018 04:00:00 - - - - - - - -
15.11.2018 03:00:00 17,4 15,6 12 7 28 15 E 3,2
15.11.2018 02:00:00 17,7 16,0 6 3 25 13 NNE 0,1
15.11.2018 01:00:00 17,8 16,0 9 5 25 13 NNE -
15.11.2018 00:00:00 17,7 15,9 10 6 26 14 NNE 0,0
14.11.2018 23:00:00 17,7 15,9 8 4 27 14 NNE 0,0
14.11.2018 22:00:00 17,9 16,1 8 5 29 16 NNE 0,0
14.11.2018 21:00:00 17,8 16,0 8 5 26 14 NNE 0,0
14.11.2018 20:00:00 17,8 16,0 6 3 24 13 NNE 0,0
14.11.2018 19:00:00 17,9 15,7 8 4 26 14 NNE -
14.11.2018 18:00:00 18,0 15,4 10 5 29 16 NNE 0,0
14.11.2018 17:00:00 18,4 15,3 11 6 32 18 NE 0,0
14.11.2018 16:00:00 18,9 15,2 10 5 30 16 NE 0,0
14.11.2018 15:00:00 19,3 15,4 12 7 29 16 NE 0,0
14.11.2018 14:00:00 18,9 15,2 13 7 32 17 ENE 0,0
14.11.2018 13:00:00 18,6 15,5 11 6 32 17 NE -
14.11.2018 12:00:00 18,4 15,6 10 5 27 14 NE 0,0

tt = Température de l'air
td = dewpoint
ff = Vitesse du vent
fx = gusts
dd = Direction du vent
rr = Quantités de précipitations

stations d'obs. à proximité